createdAt,value
2023-02-15T00:00:31.774Z,59.1
2023-02-15T00:01:33.696Z,59.1
2023-02-15T00:02:35.582Z,59.1
2023-02-15T00:03:37.433Z,59.1
2023-02-15T00:04:39.413Z,59.1
2023-02-15T00:05:41.237Z,59.1
2023-02-15T00:06:43.032Z,59.1
2023-02-15T00:07:44.966Z,59.1
2023-02-15T00:08:46.856Z,59.1
2023-02-15T00:09:48.641Z,59.1
2023-02-15T00:10:50.600Z,59.1
2023-02-15T00:11:52.535Z,59.1
2023-02-15T00:12:54.347Z,59.1
2023-02-15T00:13:56.339Z,59.1
2023-02-15T00:14:58.381Z,59.1
2023-02-15T00:16:01.259Z,59.1
2023-02-15T00:17:12.364Z,59.1
2023-02-15T00:18:14.206Z,59.1
2023-02-15T00:19:16.109Z,59.1
2023-02-15T00:20:17.898Z,59.1
2023-02-15T00:21:19.748Z,59.1
2023-02-15T00:22:21.703Z,59.1
2023-02-15T00:23:23.525Z,59.1
2023-02-15T00:24:25.445Z,59.1
2023-02-15T00:25:27.304Z,59.1
2023-02-15T00:26:29.185Z,59.1
2023-02-15T00:27:31.168Z,59.1
2023-02-15T00:28:32.983Z,59.1
2023-02-15T00:29:35.011Z,59.1
2023-02-15T00:30:36.891Z,59.1
2023-02-15T00:31:39.190Z,59.1
2023-02-15T00:32:40.546Z,59.1
2023-02-15T00:33:42.384Z,59.1
2023-02-15T00:34:44.306Z,59.1
2023-02-15T00:35:46.125Z,59.1
2023-02-15T00:36:48.146Z,59.1
2023-02-15T00:37:50.372Z,59.1
2023-02-15T00:38:51.766Z,59.1
2023-02-15T00:39:53.810Z,59.1
2023-02-15T00:40:55.553Z,59.1
2023-02-15T00:41:58.025Z,59.1
2023-02-15T00:42:59.345Z,59.1
2023-02-15T00:44:01.312Z,59.1
2023-02-15T00:45:03.270Z,59.1
2023-02-15T00:46:05.785Z,59.1
2023-02-15T00:47:06.946Z,59.1
2023-02-15T00:48:08.903Z,59.1
2023-02-15T00:49:10.754Z,59.1
2023-02-15T00:50:12.865Z,59.1
2023-02-15T00:51:14.476Z,59.1
2023-02-15T00:52:16.315Z,59.1
2023-02-15T00:53:18.325Z,59.1
2023-02-15T00:54:20.185Z,59.1
2023-02-15T00:55:21.979Z,59.1
2023-02-15T00:56:23.975Z,59.1
2023-02-15T00:57:25.918Z,59.1
2023-02-15T00:58:27.636Z,59.1
2023-02-15T00:59:29.515Z,59.1
2023-02-15T01:00:31.526Z,59.2
2023-02-15T01:01:33.600Z,59.2
2023-02-15T01:02:35.256Z,59.2
2023-02-15T01:03:37.196Z,59.2
2023-02-15T01:04:39.176Z,59.2
2023-02-15T01:05:40.879Z,59.2
2023-02-15T01:06:42.813Z,59.2
2023-02-15T01:07:44.645Z,59.2
2023-02-15T01:08:46.472Z,59.2
2023-02-15T01:09:48.359Z,59.2
2023-02-15T01:10:50.219Z,59.3
2023-02-15T01:11:52.119Z,59.3
2023-02-15T01:12:54.099Z,59.3
2023-02-15T01:13:55.896Z,59.3
2023-02-15T01:14:57.773Z,59.3
2023-02-15T01:16:01.112Z,59.3
2023-02-15T01:17:11.924Z,59.3
2023-02-15T01:18:13.736Z,59.3
2023-02-15T01:19:16.227Z,59.3
2023-02-15T01:20:17.603Z,59.3
2023-02-15T01:21:19.381Z,59.3
2023-02-15T01:22:21.270Z,59.3
2023-02-15T01:23:23.210Z,59.3
2023-02-15T01:24:25.129Z,59.3
2023-02-15T01:25:26.990Z,59.2
2023-02-15T01:26:28.891Z,59.2
2023-02-15T01:27:30.692Z,59.3
2023-02-15T01:28:33.110Z,59.3
2023-02-15T01:29:34.520Z,59.3
2023-02-15T01:30:36.453Z,59.2
2023-02-15T01:31:38.813Z,59.3
2023-02-15T01:32:40.614Z,59.3
2023-02-15T01:33:42.014Z,59.3
2023-02-15T01:34:43.955Z,59.3
2023-02-15T01:35:45.874Z,59.3
2023-02-15T01:36:48.116Z,59.3
2023-02-15T01:37:49.721Z,59.3
2023-02-15T01:38:51.553Z,59.3
2023-02-15T01:39:53.454Z,59.3
2023-02-15T01:40:55.673Z,59.2
2023-02-15T01:41:57.272Z,59.2
2023-02-15T01:42:59.100Z,59.2
2023-02-15T01:44:01.088Z,59.2
2023-02-15T01:45:03.013Z,59.2
2023-02-15T01:46:05.597Z,59.2
2023-02-15T01:47:06.823Z,59.1
2023-02-15T01:48:08.541Z,59.1
2023-02-15T01:49:10.479Z,59.1
2023-02-15T01:50:12.419Z,59.1
2023-02-15T01:51:14.186Z,59.1
2023-02-15T01:52:16.140Z,59.1
2023-02-15T01:53:17.956Z,59.1
2023-02-15T01:54:19.855Z,59
2023-02-15T01:55:21.821Z,59
2023-02-15T01:56:23.699Z,59
2023-02-15T01:57:25.485Z,59
2023-02-15T01:58:27.404Z,59
2023-02-15T01:59:29.347Z,59
2023-02-15T02:00:31.151Z,58.9
2023-02-15T02:01:33.156Z,58.9
2023-02-15T02:02:35.272Z,58.9
2023-02-15T02:03:36.772Z,58.9
2023-02-15T02:04:38.687Z,58.9
2023-02-15T02:05:40.591Z,58.9
2023-02-15T02:06:42.427Z,58.9
2023-02-15T02:07:44.405Z,58.9
2023-02-15T02:08:46.226Z,58.9
2023-02-15T02:09:48.006Z,58.9
2023-02-15T02:10:49.909Z,58.9
2023-02-15T02:11:51.835Z,58.9
2023-02-15T02:12:53.686Z,58.8
2023-02-15T02:13:55.613Z,58.8
2023-02-15T02:14:58.140Z,58.8
2023-02-15T02:16:00.815Z,58.8
2023-02-15T02:17:11.554Z,58.8
2023-02-15T02:18:13.706Z,58.8
2023-02-15T02:19:15.366Z,58.8
2023-02-15T02:20:17.200Z,58.8
2023-02-15T02:21:19.145Z,58.8
2023-02-15T02:22:20.960Z,58.8
2023-02-15T02:23:23.442Z,58.8
2023-02-15T02:24:24.822Z,58.8
2023-02-15T02:25:26.637Z,58.8
2023-02-15T02:26:28.496Z,58.8
2023-02-15T02:27:30.939Z,58.7
2023-02-15T02:28:32.356Z,58.7
2023-02-15T02:29:34.176Z,58.7
2023-02-15T02:30:36.939Z,58.7
2023-02-15T02:31:38.968Z,58.7
2023-02-15T02:32:50.144Z,58.7
2023-02-15T02:33:52.172Z,58.7
2023-02-15T02:34:54.255Z,58.7
2023-02-15T02:35:56.306Z,58.7
2023-02-15T02:36:57.757Z,58.7
2023-02-15T02:37:59.694Z,58.7
2023-02-15T02:39:01.553Z,58.7
2023-02-15T02:40:03.769Z,58.7
2023-02-15T02:41:05.265Z,58.7
2023-02-15T02:42:07.249Z,58.7
2023-02-15T02:43:09.048Z,58.7
2023-02-15T02:44:11.196Z,58.7
2023-02-15T02:45:12.808Z,58.7
2023-02-15T02:46:14.795Z,58.7
2023-02-15T02:47:16.875Z,58.7
2023-02-15T02:48:18.408Z,58.7
2023-02-15T02:49:20.319Z,58.7
2023-02-15T02:50:22.216Z,58.7
2023-02-15T02:51:24.104Z,58.7
2023-02-15T02:52:25.932Z,58.7
2023-02-15T02:53:27.823Z,58.7
2023-02-15T02:54:29.789Z,58.7
2023-02-15T02:55:31.514Z,58.7
2023-02-15T02:56:33.424Z,58.8
2023-02-15T02:57:35.363Z,58.8
2023-02-15T02:58:37.203Z,58.8
2023-02-15T02:59:39.084Z,58.8
2023-02-15T03:00:41.012Z,58.8
2023-02-15T03:01:43.083Z,58.8
2023-02-15T03:02:44.973Z,58.8
2023-02-15T03:03:46.661Z,58.8
2023-02-15T03:04:48.857Z,58.8
2023-02-15T03:05:50.487Z,58.9
2023-02-15T03:06:52.392Z,58.8
2023-02-15T03:07:54.248Z,58.9
2023-02-15T03:08:56.088Z,58.9
2023-02-15T03:09:57.985Z,58.9
2023-02-15T03:10:59.895Z,58.9
2023-02-15T03:12:01.731Z,58.9
2023-02-15T03:13:03.765Z,58.9
2023-02-15T03:14:06.090Z,58.9
2023-02-15T03:15:07.440Z,58.9
2023-02-15T03:16:09.644Z,58.9
2023-02-15T03:17:11.291Z,58.9
2023-02-15T03:18:13.549Z,58.9
2023-02-15T03:19:14.971Z,58.9
2023-02-15T03:20:16.979Z,58.9
2023-02-15T03:21:18.729Z,58.9
2023-02-15T03:22:21.094Z,59
2023-02-15T03:23:22.494Z,59
2023-02-15T03:24:27.298Z,59
2023-02-15T03:25:36.585Z,59
2023-02-15T03:26:38.986Z,59
2023-02-15T03:27:40.330Z,59
2023-02-15T03:28:42.293Z,59
2023-02-15T03:29:44.161Z,59
2023-02-15T03:30:46.608Z,59
2023-02-15T03:31:48.361Z,59
2023-02-15T03:32:49.861Z,59
2023-02-15T03:33:51.686Z,59
2023-02-15T03:34:53.828Z,59
2023-02-15T03:35:55.556Z,59
2023-02-15T03:36:57.301Z,59
2023-02-15T03:37:59.400Z,59
2023-02-15T03:39:01.233Z,59
2023-02-15T03:40:03.185Z,59
2023-02-15T03:41:04.806Z,59
2023-02-15T03:42:06.692Z,59
2023-02-15T03:43:08.634Z,59
2023-02-15T03:44:10.451Z,59
2023-02-15T03:45:12.378Z,59
2023-02-15T03:46:14.467Z,59
2023-02-15T03:47:16.126Z,59
2023-02-15T03:48:17.944Z,59
2023-02-15T03:49:19.918Z,59
2023-02-15T03:50:21.757Z,59
2023-02-15T03:51:23.701Z,59
2023-02-15T03:52:25.606Z,59
2023-02-15T03:53:27.482Z,59
2023-02-15T03:54:29.378Z,59
2023-02-15T03:55:31.265Z,59
2023-02-15T03:56:33.124Z,59
2023-02-15T03:57:34.989Z,59
2023-02-15T03:58:36.928Z,59
2023-02-15T03:59:38.788Z,59
2023-02-15T04:00:40.900Z,59
2023-02-15T04:01:42.850Z,59
2023-02-15T04:02:44.815Z,59
2023-02-15T04:03:46.536Z,59
2023-02-15T04:04:49.014Z,59
2023-02-15T04:05:50.506Z,59
2023-02-15T04:06:52.291Z,59
2023-02-15T04:07:54.012Z,59
2023-02-15T04:08:56.440Z,59
2023-02-15T04:09:57.902Z,59
2023-02-15T04:10:59.702Z,59
2023-02-15T04:12:01.650Z,59
2023-02-15T04:13:04.083Z,59
2023-02-15T04:14:05.402Z,59
2023-02-15T04:15:07.343Z,59.1
2023-02-15T04:16:09.688Z,59.1
2023-02-15T04:17:11.335Z,59
2023-02-15T04:18:12.988Z,59
2023-02-15T04:19:14.840Z,59
2023-02-15T04:20:16.696Z,59
2023-02-15T04:21:18.766Z,59
2023-02-15T04:22:20.555Z,59
2023-02-15T04:23:22.357Z,59
2023-02-15T04:24:24.235Z,59
2023-02-15T04:25:26.200Z,59.1
2023-02-15T04:26:28.030Z,59
2023-02-15T04:27:29.915Z,59
2023-02-15T04:28:31.896Z,59.1
2023-02-15T04:29:33.673Z,59
2023-02-15T04:30:35.620Z,59
2023-02-15T04:31:37.925Z,59
2023-02-15T04:32:39.452Z,59
2023-02-15T04:33:41.205Z,59
2023-02-15T04:34:43.371Z,59
2023-02-15T04:35:45.346Z,59
2023-02-15T04:36:47.328Z,59
2023-02-15T04:37:49.089Z,59
2023-02-15T04:38:50.970Z,59
2023-02-15T04:39:52.878Z,59
2023-02-15T04:40:54.735Z,59
2023-02-15T04:41:56.633Z,59
2023-02-15T04:42:58.513Z,59
2023-02-15T04:44:00.335Z,59
2023-02-15T04:45:02.325Z,59
2023-02-15T04:46:05.631Z,59
2023-02-15T04:47:16.309Z,59
2023-02-15T04:48:18.203Z,59
2023-02-15T04:49:20.197Z,59
2023-02-15T04:50:21.954Z,59
2023-02-15T04:51:23.847Z,59
2023-02-15T04:52:25.779Z,59
2023-02-15T04:53:27.762Z,59
2023-02-15T04:54:29.491Z,59
2023-02-15T04:55:31.843Z,59
2023-02-15T04:56:33.274Z,59
2023-02-15T04:57:35.316Z,59
2023-02-15T04:58:37.086Z,59
2023-02-15T04:59:39.441Z,59
2023-02-15T05:00:40.773Z,59
2023-02-15T05:01:42.865Z,59
2023-02-15T05:02:44.594Z,59
2023-02-15T05:03:46.819Z,59
2023-02-15T05:04:48.383Z,59
2023-02-15T05:05:50.304Z,59
2023-02-15T05:06:52.097Z,59
2023-02-15T05:07:54.234Z,59
2023-02-15T05:08:55.982Z,59
2023-02-15T05:09:57.764Z,59
2023-02-15T05:10:59.637Z,59
2023-02-15T05:12:01.586Z,59
2023-02-15T05:13:03.395Z,59
2023-02-15T05:14:05.487Z,59
2023-02-15T05:15:07.197Z,59
2023-02-15T05:16:09.485Z,59
2023-02-15T05:17:11.007Z,59
2023-02-15T05:18:12.886Z,59
2023-02-15T05:19:14.796Z,59
2023-02-15T05:20:16.708Z,59
2023-02-15T05:21:18.628Z,59
2023-02-15T05:22:20.738Z,59
2023-02-15T05:23:22.348Z,59
2023-02-15T05:24:24.380Z,59
2023-02-15T05:25:26.209Z,59
2023-02-15T05:26:28.039Z,59
2023-02-15T05:27:30.023Z,59
2023-02-15T05:28:31.819Z,58.9
2023-02-15T05:29:33.829Z,58.9
2023-02-15T05:30:36.376Z,59
2023-02-15T05:31:38.607Z,59
2023-02-15T05:32:50.067Z,58.9
2023-02-15T05:33:51.675Z,58.9
2023-02-15T05:34:53.634Z,58.9
2023-02-15T05:35:55.524Z,58.9
2023-02-15T05:36:57.358Z,58.9
2023-02-15T05:37:59.246Z,58.9
2023-02-15T05:39:01.215Z,58.9
2023-02-15T05:40:03.058Z,58.9
2023-02-15T05:41:04.887Z,58.9
2023-02-15T05:42:07.191Z,58.9
2023-02-15T05:43:08.677Z,58.9
2023-02-15T05:44:10.652Z,58.9
2023-02-15T05:45:12.450Z,58.9
2023-02-15T05:46:15.088Z,58.9
2023-02-15T05:47:16.178Z,58.9
2023-02-15T05:48:18.130Z,58.9
2023-02-15T05:49:19.905Z,58.9
2023-02-15T05:50:22.349Z,58.9
2023-02-15T05:51:23.754Z,58.9
2023-02-15T05:52:25.578Z,58.9
2023-02-15T05:53:27.450Z,58.9
2023-02-15T05:54:29.684Z,58.9
2023-02-15T05:55:31.365Z,58.9
2023-02-15T05:56:33.156Z,58.9
2023-02-15T05:57:34.964Z,58.9
2023-02-15T05:58:36.987Z,58.9
2023-02-15T05:59:38.805Z,58.9
2023-02-15T06:00:40.624Z,58.9
2023-02-15T06:01:42.486Z,58.9
2023-02-15T06:02:44.702Z,59
2023-02-15T06:03:46.950Z,59
2023-02-15T06:04:48.147Z,59
2023-02-15T06:05:50.041Z,59
2023-02-15T06:06:51.886Z,59
2023-02-15T06:07:53.765Z,59
2023-02-15T06:08:55.733Z,59
2023-02-15T06:09:57.563Z,59
2023-02-15T06:10:59.507Z,59
2023-02-15T06:12:01.384Z,59
2023-02-15T06:13:03.190Z,59
2023-02-15T06:14:05.072Z,59
2023-02-15T06:15:07.070Z,58.9
2023-02-15T06:16:09.075Z,58.9
2023-02-15T06:17:10.734Z,59
2023-02-15T06:18:12.767Z,59
2023-02-15T06:19:14.634Z,58.9
2023-02-15T06:20:16.423Z,58.9
2023-02-15T06:21:18.365Z,59
2023-02-15T06:22:20.280Z,59
2023-02-15T06:23:22.140Z,59
2023-02-15T06:24:24.163Z,59
2023-02-15T06:25:26.017Z,58.9
2023-02-15T06:26:27.880Z,59
2023-02-15T06:27:29.717Z,59
2023-02-15T06:28:32.159Z,59
2023-02-15T06:29:33.671Z,59
2023-02-15T06:30:35.446Z,59
2023-02-15T06:31:37.728Z,59
2023-02-15T06:32:39.623Z,59
2023-02-15T06:33:40.924Z,59
2023-02-15T06:34:42.902Z,59
2023-02-15T06:35:44.724Z,59
2023-02-15T06:36:47.181Z,59
2023-02-15T06:37:48.581Z,59
2023-02-15T06:38:50.377Z,59
2023-02-15T06:39:52.265Z,59
2023-02-15T06:40:54.502Z,59
2023-02-15T06:41:56.145Z,59
2023-02-15T06:42:57.876Z,59
2023-02-15T06:43:59.796Z,59
2023-02-15T06:45:01.825Z,59
2023-02-15T06:46:05.339Z,59.1
2023-02-15T06:47:15.823Z,59.1
2023-02-15T06:48:17.611Z,59
2023-02-15T06:49:19.824Z,59
2023-02-15T06:50:21.452Z,59
2023-02-15T06:51:23.281Z,59.1
2023-02-15T06:52:25.150Z,59
2023-02-15T06:53:27.193Z,59.1
2023-02-15T06:54:28.963Z,59
2023-02-15T06:55:30.791Z,59.1
2023-02-15T06:56:32.622Z,59.1
2023-02-15T06:57:34.691Z,59
2023-02-15T06:58:36.384Z,59.1
2023-02-15T06:59:38.314Z,59
2023-02-15T07:00:40.291Z,59
2023-02-15T07:01:42.328Z,59
2023-02-15T07:02:43.952Z,59
2023-02-15T07:03:45.830Z,59
2023-02-15T07:04:47.990Z,59
2023-02-15T07:05:49.515Z,59
2023-02-15T07:06:54.562Z,59
2023-02-15T07:08:03.694Z,59
2023-02-15T07:09:05.463Z,59
2023-02-15T07:10:07.413Z,59
2023-02-15T07:11:09.374Z,59
2023-02-15T07:12:11.106Z,59
2023-02-15T07:13:13.166Z,59
2023-02-15T07:14:14.973Z,59
2023-02-15T07:15:16.827Z,59
2023-02-15T07:16:18.967Z,59
2023-02-15T07:17:37.171Z,59
2023-02-15T07:18:43.201Z,59
2023-02-15T07:19:44.975Z,59
2023-02-15T07:20:46.940Z,59
2023-02-15T07:21:48.691Z,59
2023-02-15T07:22:50.627Z,59
2023-02-15T07:23:52.471Z,59
2023-02-15T07:24:54.440Z,59
2023-02-15T07:25:56.300Z,59
2023-02-15T07:26:58.191Z,59
2023-02-15T07:28:00.198Z,59
2023-02-15T07:29:02.301Z,59
2023-02-15T07:30:04.109Z,59
2023-02-15T07:31:06.016Z,59
2023-02-15T07:32:07.898Z,59
2023-02-15T07:33:09.538Z,59
2023-02-15T07:34:11.407Z,59
2023-02-15T07:35:13.298Z,59
2023-02-15T07:36:15.190Z,59
2023-02-15T07:37:17.147Z,59
2023-02-15T07:38:18.970Z,59
2023-02-15T07:39:20.835Z,59
2023-02-15T07:40:22.813Z,59
2023-02-15T07:41:24.686Z,59
2023-02-15T07:42:26.509Z,59
2023-02-15T07:43:28.500Z,59
2023-02-15T07:44:31.286Z,59.1
2023-02-15T07:45:32.359Z,59
2023-02-15T07:46:34.733Z,59
2023-02-15T07:47:36.256Z,59.1
2023-02-15T07:48:38.558Z,59.1
2023-02-15T07:49:39.930Z,59.1
2023-02-15T07:50:41.887Z,59.1
2023-02-15T07:51:43.767Z,59.1
2023-02-15T07:52:46.063Z,59.1
2023-02-15T07:53:47.527Z,59.1
2023-02-15T07:54:49.437Z,59.1
2023-02-15T07:55:51.241Z,59.1
2023-02-15T07:56:53.379Z,59.1
2023-02-15T07:57:55.076Z,59.1
2023-02-15T07:58:57.131Z,59.1
2023-02-15T07:59:58.917Z,59.1
2023-02-15T08:01:00.691Z,59.1
2023-02-15T08:02:02.510Z,59.1
2023-02-15T08:03:05.062Z,59.1
2023-02-15T08:04:06.360Z,59.1
2023-02-15T08:05:08.149Z,59.1
2023-02-15T08:06:10.021Z,59.1
2023-02-15T08:07:11.978Z,59.1
2023-02-15T08:08:13.788Z,59.1
2023-02-15T08:09:15.819Z,59.1
2023-02-15T08:10:17.671Z,59.1
2023-02-15T08:11:19.459Z,59.1
2023-02-15T08:12:21.383Z,59.1
2023-02-15T08:13:23.323Z,59.3
2023-02-15T08:14:25.231Z,60
2023-02-15T08:15:27.178Z,60.6
2023-02-15T08:16:29.164Z,60.9
2023-02-15T08:17:30.915Z,61
2023-02-15T08:18:32.743Z,61
2023-02-15T08:19:34.694Z,61
2023-02-15T08:20:36.482Z,60.9
2023-02-15T08:21:38.412Z,60.8
2023-02-15T08:22:40.284Z,60.7
2023-02-15T08:23:42.267Z,60.5
2023-02-15T08:24:44.040Z,60.4
2023-02-15T08:25:46.013Z,60.3
2023-02-15T08:26:48.376Z,60.2
2023-02-15T08:27:49.692Z,60.1
2023-02-15T08:28:51.692Z,60
2023-02-15T08:29:53.568Z,60
2023-02-15T08:30:56.168Z,60
2023-02-15T08:31:57.607Z,60
2023-02-15T08:32:59.189Z,59.9
2023-02-15T08:34:01.021Z,59.9
2023-02-15T08:35:03.510Z,59.9
2023-02-15T08:36:04.939Z,60
2023-02-15T08:37:06.843Z,59.9
2023-02-15T08:38:08.586Z,60
2023-02-15T08:39:10.831Z,60
2023-02-15T08:40:12.385Z,60
2023-02-15T08:41:14.196Z,60
2023-02-15T08:42:16.119Z,60
2023-02-15T08:43:18.086Z,60
2023-02-15T08:44:19.886Z,60.1
2023-02-15T08:45:21.829Z,60.1
2023-02-15T08:46:23.817Z,60.1
2023-02-15T08:47:25.475Z,60.1
2023-02-15T08:48:28.109Z,60.1
2023-02-15T08:49:29.304Z,60.1
2023-02-15T08:50:31.141Z,60.1
2023-02-15T08:51:33.042Z,60.1
2023-02-15T08:52:34.942Z,60.1
2023-02-15T08:53:36.805Z,60.1
2023-02-15T08:54:38.692Z,60.2
2023-02-15T08:55:40.659Z,60.2
2023-02-15T08:56:42.425Z,60.2
2023-02-15T08:57:44.361Z,60.2
2023-02-15T08:58:46.318Z,60.2
2023-02-15T08:59:48.334Z,60.2
2023-02-15T09:00:50.082Z,60.2
2023-02-15T09:01:52.405Z,60.2
2023-02-15T09:02:53.718Z,60.2
2023-02-15T09:03:55.734Z,60.2
2023-02-15T09:04:57.551Z,60.2
2023-02-15T09:05:59.354Z,60.2
2023-02-15T09:07:01.224Z,60.2
2023-02-15T09:08:03.165Z,60.2
2023-02-15T09:09:04.958Z,60.2
2023-02-15T09:10:06.894Z,60.2
2023-02-15T09:11:08.799Z,60.2
2023-02-15T09:12:10.673Z,60.2
2023-02-15T09:13:12.516Z,60.2
2023-02-15T09:14:14.487Z,60.2
2023-02-15T09:15:16.412Z,60.2
2023-02-15T09:16:18.372Z,60.2
2023-02-15T09:17:20.641Z,60.2
2023-02-15T09:18:21.944Z,60.2
2023-02-15T09:19:23.847Z,60.2
2023-02-15T09:20:25.918Z,60.2
2023-02-15T09:21:28.097Z,60.2
2023-02-15T09:22:29.475Z,60.2
2023-02-15T09:23:31.445Z,60.2
2023-02-15T09:24:33.326Z,60.2
2023-02-15T09:25:35.407Z,60.2
2023-02-15T09:26:37.128Z,60.2
2023-02-15T09:27:38.954Z,60.2
2023-02-15T09:28:40.808Z,60.2
2023-02-15T09:29:42.912Z,60.2
2023-02-15T09:30:44.988Z,60.2
2023-02-15T09:31:46.880Z,60.2
2023-02-15T09:32:48.438Z,60.2
2023-02-15T09:33:50.361Z,60.2
2023-02-15T09:34:52.111Z,60.2
2023-02-15T09:35:54.052Z,60.2
2023-02-15T09:36:55.908Z,60.2
2023-02-15T09:37:57.750Z,60.2
2023-02-15T09:38:59.663Z,60.2
2023-02-15T09:40:01.617Z,60.2
2023-02-15T09:41:04.735Z,60.2
2023-02-15T09:42:15.733Z,60.2
2023-02-15T09:43:17.565Z,60.2
2023-02-15T09:44:19.624Z,60.2
2023-02-15T09:45:21.345Z,60.2
2023-02-15T09:46:23.419Z,60.2
2023-02-15T09:47:25.109Z,60.2
2023-02-15T09:48:27.137Z,60.2
2023-02-15T09:49:28.999Z,60.2
2023-02-15T09:50:30.803Z,60.2
2023-02-15T09:51:32.880Z,60.2
2023-02-15T09:52:34.582Z,60.2
2023-02-15T09:53:36.548Z,60.2
2023-02-15T09:54:38.369Z,60.2
2023-02-15T09:55:40.321Z,60.2
2023-02-15T09:56:42.221Z,60.2
2023-02-15T09:57:44.031Z,60.2
2023-02-15T09:58:45.932Z,60.2
2023-02-15T09:59:47.939Z,60.2
2023-02-15T10:00:49.773Z,60.2
2023-02-15T10:01:51.603Z,60.2
2023-02-15T10:02:53.576Z,60.2
2023-02-15T10:03:56.000Z,60.2
2023-02-15T10:04:57.524Z,60.2
2023-02-15T10:05:59.235Z,60.2
2023-02-15T10:07:01.116Z,60.2
2023-02-15T10:08:03.534Z,60.2
2023-02-15T10:09:04.844Z,60.2
2023-02-15T10:10:06.795Z,60.2
2023-02-15T10:11:08.584Z,60.2
2023-02-15T10:12:11.009Z,60.2
2023-02-15T10:13:12.462Z,60.2
2023-02-15T10:14:14.237Z,60.2
2023-02-15T10:15:16.291Z,60.2
2023-02-15T10:16:18.499Z,60.2
2023-02-15T10:17:20.009Z,60.2
2023-02-15T10:18:21.796Z,60.2
2023-02-15T10:19:23.895Z,60.2
2023-02-15T10:20:25.661Z,60.2
2023-02-15T10:21:27.481Z,60.2
2023-02-15T10:22:29.517Z,60.3
2023-02-15T10:23:31.432Z,60.3
2023-02-15T10:24:33.229Z,60.3
2023-02-15T10:25:35.227Z,60.3
2023-02-15T10:26:37.086Z,60.3
2023-02-15T10:27:38.847Z,60.3
2023-02-15T10:28:40.786Z,60.3
2023-02-15T10:29:42.756Z,60.3
2023-02-15T10:30:44.998Z,60.3
2023-02-15T10:31:47.070Z,60.3
2023-02-15T10:32:48.368Z,60.3
2023-02-15T10:33:50.129Z,60.3
2023-02-15T10:34:52.147Z,60.3
2023-02-15T10:35:54.423Z,60.3
2023-02-15T10:36:55.827Z,60.3
2023-02-15T10:37:57.714Z,60.3
2023-02-15T10:38:59.617Z,60.3
2023-02-15T10:40:01.535Z,60.3
2023-02-15T10:41:04.637Z,60.3
2023-02-15T10:42:15.661Z,60.3
2023-02-15T10:43:17.619Z,60.3
2023-02-15T10:44:19.392Z,60.3
2023-02-15T10:45:21.493Z,60.3
2023-02-15T10:46:23.372Z,60.3
2023-02-15T10:47:25.214Z,60.3
2023-02-15T10:48:27.042Z,60.3
2023-02-15T10:49:28.962Z,60.3
2023-02-15T10:50:31.423Z,60.3
2023-02-15T10:51:32.654Z,60.3
2023-02-15T10:52:34.815Z,60.3
2023-02-15T10:53:36.595Z,60.3
2023-02-15T10:54:39.015Z,60.3
2023-02-15T10:55:40.365Z,60.3
2023-02-15T10:56:42.346Z,60.4
2023-02-15T10:57:44.181Z,60.4
2023-02-15T10:58:46.633Z,60.4
2023-02-15T10:59:48.013Z,60.4
2023-02-15T11:00:49.833Z,60.3
2023-02-15T11:01:51.990Z,60.3
2023-02-15T11:02:54.023Z,60.4
2023-02-15T11:03:55.534Z,60.4
2023-02-15T11:04:57.575Z,60.4
2023-02-15T11:05:59.445Z,60.4
2023-02-15T11:07:01.278Z,60.4
2023-02-15T11:08:03.078Z,60.4
2023-02-15T11:09:07.038Z,60.4
2023-02-15T11:10:18.836Z,60.4
2023-02-15T11:11:29.818Z,60.4
2023-02-15T11:12:33.199Z,60.4
2023-02-15T11:13:43.639Z,60.4
2023-02-15T11:14:45.399Z,60.4
2023-02-15T11:15:47.977Z,60.4
2023-02-15T11:16:49.093Z,60.4
2023-02-15T11:17:51.072Z,60.4
2023-02-15T11:18:52.858Z,60.4
2023-02-15T11:19:55.257Z,60.4
2023-02-15T11:20:56.686Z,60.4
2023-02-15T11:21:58.836Z,60.4
2023-02-15T11:23:02.441Z,60.4
2023-02-15T11:24:13.088Z,60.4
2023-02-15T11:25:14.574Z,60.4
2023-02-15T11:26:16.381Z,60.4
2023-02-15T11:27:18.506Z,60.5
2023-02-15T11:28:20.741Z,60.5
2023-02-15T11:29:22.061Z,60.5
2023-02-15T11:30:24.201Z,60.5
2023-02-15T11:31:26.242Z,60.5
2023-02-15T11:32:27.972Z,60.4
2023-02-15T11:33:29.772Z,60.4
2023-02-15T11:34:32.031Z,60.4
2023-02-15T11:35:33.561Z,60.4
2023-02-15T11:36:35.527Z,60.4
2023-02-15T11:37:37.411Z,60.4
2023-02-15T11:38:39.320Z,60.4
2023-02-15T11:39:41.181Z,60.4
2023-02-15T11:40:43.033Z,60.4
2023-02-15T11:41:45.029Z,60.4
2023-02-15T11:42:46.841Z,60.4
2023-02-15T11:43:48.778Z,60.4
2023-02-15T11:44:50.640Z,60.4
2023-02-15T11:45:52.553Z,60.4
2023-02-15T11:46:54.403Z,60.4
2023-02-15T11:47:56.401Z,60.4
2023-02-15T11:48:58.255Z,60.5
2023-02-15T11:50:00.143Z,60.5
2023-02-15T11:51:03.358Z,60.5
2023-02-15T11:52:14.287Z,60.5
2023-02-15T11:53:16.179Z,60.6
2023-02-15T11:54:17.995Z,60.6
2023-02-15T11:55:19.994Z,60.6
2023-02-15T11:56:21.767Z,60.6
2023-02-15T11:57:23.727Z,60.6
2023-02-15T11:58:25.658Z,60.6
2023-02-15T11:59:27.566Z,60.6
2023-02-15T12:00:29.324Z,60.6
2023-02-15T12:01:31.269Z,60.7
2023-02-15T12:02:33.776Z,60.7
2023-02-15T12:03:35.503Z,60.7
2023-02-15T12:04:36.947Z,60.7
2023-02-15T12:05:38.887Z,60.7
2023-02-15T12:06:41.213Z,60.7
2023-02-15T12:07:42.617Z,60.8
2023-02-15T12:08:44.670Z,60.8
2023-02-15T12:09:46.378Z,60.8
2023-02-15T12:10:48.922Z,60.8
2023-02-15T12:11:50.130Z,60.8
2023-02-15T12:12:52.190Z,60.8
2023-02-15T12:13:54.008Z,60.8
2023-02-15T12:14:56.232Z,60.8
2023-02-15T12:15:57.911Z,60.8
2023-02-15T12:16:59.609Z,60.8
2023-02-15T12:18:01.546Z,60.8
2023-02-15T12:19:05.455Z,60.8
2023-02-15T12:20:15.627Z,60.8
2023-02-15T12:21:17.552Z,60.8
2023-02-15T12:22:19.493Z,60.8
2023-02-15T12:23:21.592Z,60.8
2023-02-15T12:24:23.269Z,60.8
2023-02-15T12:25:25.274Z,60.8
2023-02-15T12:26:27.024Z,60.8
2023-02-15T12:27:28.827Z,60.8
2023-02-15T12:28:30.764Z,60.8
2023-02-15T12:29:32.585Z,60.8
2023-02-15T12:30:34.858Z,60.8
2023-02-15T12:31:37.114Z,60.8
2023-02-15T12:32:38.611Z,60.8
2023-02-15T12:33:40.383Z,60.8
2023-02-15T12:34:42.199Z,60.8
2023-02-15T12:35:44.031Z,60.8
2023-02-15T12:36:45.882Z,60.8
2023-02-15T12:37:47.777Z,60.8
2023-02-15T12:38:49.640Z,60.8
2023-02-15T12:39:51.606Z,60.8
2023-02-15T12:40:53.477Z,60.8
2023-02-15T12:41:55.400Z,60.8
2023-02-15T12:42:57.222Z,60.8
2023-02-15T12:43:59.119Z,60.8
2023-02-15T12:45:01.166Z,60.8
2023-02-15T12:46:13.814Z,60.8
2023-02-15T12:47:15.125Z,60.8
2023-02-15T12:48:17.142Z,60.8
2023-02-15T12:49:21.603Z,60.8
2023-02-15T12:50:36.127Z,60.9
2023-02-15T12:51:43.742Z,60.8
2023-02-15T12:52:45.331Z,60.9
2023-02-15T12:53:47.199Z,60.9
2023-02-15T12:54:48.991Z,60.9
2023-02-15T12:55:51.125Z,60.9
2023-02-15T12:56:52.883Z,60.9
2023-02-15T12:57:54.742Z,60.9
2023-02-15T12:58:56.553Z,60.9
2023-02-15T12:59:58.538Z,60.9
2023-02-15T13:01:01.498Z,60.9
2023-02-15T13:02:13.036Z,60.9
2023-02-15T13:03:15.604Z,60.9
2023-02-15T13:04:26.712Z,60.9
2023-02-15T13:05:28.627Z,60.9
2023-02-15T13:06:30.645Z,60.9
2023-02-15T13:07:32.404Z,60.9
2023-02-15T13:08:34.249Z,60.9
2023-02-15T13:09:36.124Z,60.9
2023-02-15T13:10:38.117Z,60.9
2023-02-15T13:11:40.131Z,60.9
2023-02-15T13:12:41.778Z,60.9
2023-02-15T13:13:43.857Z,60.9
2023-02-15T13:14:45.656Z,61
2023-02-15T13:15:47.462Z,61
2023-02-15T13:16:49.812Z,61
2023-02-15T13:17:51.302Z,61
2023-02-15T13:18:53.172Z,61
2023-02-15T13:19:55.073Z,61
2023-02-15T13:20:57.027Z,61.1
2023-02-15T13:21:58.815Z,61.1
2023-02-15T13:23:00.645Z,61.1
2023-02-15T13:24:02.871Z,61.1
2023-02-15T13:25:04.426Z,61.1
2023-02-15T13:26:06.396Z,61.1
2023-02-15T13:27:16.649Z,61.1
2023-02-15T13:28:20.500Z,61.1
2023-02-15T13:29:22.254Z,61.1
2023-02-15T13:30:24.502Z,61.1
2023-02-15T13:31:26.897Z,61.2
2023-02-15T13:32:28.226Z,61.2
2023-02-15T13:33:29.855Z,61.2
2023-02-15T13:34:31.670Z,61.2
2023-02-15T13:35:34.078Z,61.2
2023-02-15T13:36:35.695Z,61.1
2023-02-15T13:37:37.433Z,61.1
2023-02-15T13:38:39.258Z,61.1
2023-02-15T13:39:41.764Z,61.1
2023-02-15T13:40:43.120Z,61.1
2023-02-15T13:41:44.907Z,61.1
2023-02-15T13:42:46.999Z,61.2
2023-02-15T13:43:49.186Z,61.2
2023-02-15T13:44:50.606Z,61.2
2023-02-15T13:45:52.804Z,61.2
2023-02-15T13:46:54.445Z,61.2
2023-02-15T13:47:56.351Z,61.2
2023-02-15T13:48:58.173Z,61.2
2023-02-15T13:50:00.141Z,61.2
2023-02-15T13:51:01.949Z,61.2
2023-02-15T13:52:03.828Z,61.2
2023-02-15T13:53:05.991Z,61.2
2023-02-15T13:54:07.739Z,61.2
2023-02-15T13:55:09.510Z,61.2
2023-02-15T13:56:11.453Z,61.2
2023-02-15T13:57:13.469Z,61.2
2023-02-15T13:58:15.256Z,61.2
2023-02-15T13:59:17.085Z,61.2
2023-02-15T14:00:19.077Z,61.2
2023-02-15T14:01:21.220Z,61.2
2023-02-15T14:02:33.050Z,61.2
2023-02-15T14:03:34.916Z,61.2
2023-02-15T14:04:37.117Z,61.3